Time;durP1;ratioP1;P1;durP2;ratioP2;P2;SDS_P1;SDS_P2;PMS_P1;PMS_P2;Temp;Humidity;BMP_temperature;BMP_pressure;BME280_temperature;BME280_humidity;BME280_pressure;Samples;Min_cycle;Max_cycle;Signal;HPM_P1;HPM_P2
2021/12/01 00:00:51;;;;;;;7.34;6.62;;;;;;;5.10;60.31;98845.80;463256;112;922573;-82
2021/12/01 00:01:54;;;;;;;6.89;6.33;;;;;;;5.04;60.40;98846.69;462376;112;922993;-81
2021/12/01 00:02:58;;;;;;;7.66;7.06;;;;;;;5.00;60.46;98846.31;467841;113;922758;-81
2021/12/01 00:04:01;;;;;;;6.47;5.92;;;;;;;4.97;60.51;98846.73;469723;111;922864;-80
2021/12/01 00:05:07;;;;;;;7.12;6.53;;;;;;;4.95;60.55;98842.63;464306;113;930673;-80
2021/12/01 00:06:11;;;;;;;7.92;7.23;;;;;;;4.92;60.54;98845.74;459674;113;930665;-81
2021/12/01 00:07:15;;;;;;;8.28;7.58;;;;;;;4.91;60.62;98846.78;452180;115;923346;-80
2021/12/01 00:08:19;;;;;;;9.12;7.08;;;;;;;4.89;60.66;98838.10;469479;111;923168;-82
2021/12/01 00:09:22;;;;;;;7.81;7.11;;;;;;;4.88;60.72;98837.27;468001;111;930717;-81
2021/12/01 00:10:27;;;;;;;7.20;6.63;;;;;;;4.88;60.76;98844.55;464920;111;922717;-80
2021/12/01 00:11:31;;;;;;;7.53;6.83;;;;;;;4.85;60.77;98834.99;465337;113;922737;-82
2021/12/01 00:12:34;;;;;;;6.89;6.31;;;;;;;4.86;60.85;98838.52;470015;111;922002;-81
2021/12/01 00:13:38;;;;;;;7.92;7.21;;;;;;;4.83;60.79;98836.28;467817;112;922438;-84
2021/12/01 00:14:41;;;;;;;6.42;5.57;;;;;;;4.82;60.83;98842.72;471889;111;930365;-81
2021/12/01 00:15:47;;;;;;;7.83;7.12;;;;;;;4.82;60.83;98846.25;462814;112;930219;-82
2021/12/01 00:16:50;;;;;;;7.45;6.75;;;;;;;4.83;60.82;98841.67;461962;112;923074;-80
2021/12/01 00:17:54;;;;;;;7.59;6.92;;;;;;;4.83;60.82;98842.51;470558;111;922403;-81
2021/12/01 00:18:58;;;;;;;6.26;5.75;;;;;;;4.82;60.83;98834.62;456030;114;930742;-80
2021/12/01 00:20:03;;;;;;;6.52;6.02;;;;;;;4.81;60.84;98836.48;464259;113;922625;-80
2021/12/01 00:21:07;;;;;;;5.95;5.18;;;;;;;4.80;60.73;98836.70;467378;111;923006;-80
2021/12/01 00:22:10;;;;;;;5.29;4.89;;;;;;;4.78;60.54;98834.24;461064;113;923004;-81
2021/12/01 00:23:14;;;;;;;6.03;5.44;;;;;;;4.76;60.46;98835.50;461605;112;930488;-83
2021/12/01 00:24:18;;;;;;;5.75;5.25;;;;;;;4.75;60.51;98833.84;460590;114;930636;-78
2021/12/01 00:25:24;;;;;;;5.16;4.76;;;;;;;4.74;60.47;98835.70;460974;112;922716;-81
2021/12/01 00:26:27;;;;;;;5.91;5.41;;;;;;;4.71;60.40;98835.33;461150;114;923428;-82
2021/12/01 00:27:31;;;;;;;4.67;4.27;;;;;;;4.69;60.36;98832.84;461571;114;923051;-82
2021/12/01 00:28:36;;;;;;;5.02;4.62;;;;;;;4.68;60.38;98833.91;460802;114;930618;-83
2021/12/01 00:29:39;;;;;;;4.67;4.34;;;;;;;4.66;60.36;98835.16;460639;113;930599;-83
2021/12/01 00:30:45;;;;;;;4.52;4.14;;;;;;;4.63;60.41;98834.55;461642;114;922715;-82
2021/12/01 00:31:48;;;;;;;4.64;4.19;;;;;;;4.63;60.41;98832.92;461841;112;922496;-83
2021/12/01 00:32:54;;;;;;;4.74;4.34;;;;;;;4.61;60.48;98841.23;468204;111;923214;-81
2021/12/01 00:33:57;;;;;;;5.79;4.67;;;;;;;4.59;60.40;98836.03;468068;112;930606;-81
2021/12/01 00:35:01;;;;;;;4.69;4.29;;;;;;;4.57;60.38;98837.31;462391;112;922488;-81
2021/12/01 00:36:04;;;;;;;4.28;3.98;;;;;;;4.56;60.45;98832.96;462111;113;922494;-82
2021/12/01 00:37:08;;;;;;;4.09;3.74;;;;;;;4.55;60.53;98842.92;461319;114;922651;-80
2021/12/01 00:38:11;;;;;;;3.98;3.62;;;;;;;4.54;60.45;98835.87;468811;111;922834;-81
2021/12/01 00:39:15;;;;;;;4.39;4.08;;;;;;;4.52;60.49;98835.25;467474;112;922588;-82
2021/12/01 00:40:20;;;;;;;4.87;4.12;;;;;;;4.50;60.55;98840.06;467362;113;930425;-80
2021/12/01 00:41:24;;;;;;;4.04;3.74;;;;;;;4.49;60.55;98838.40;470043;111;922593;-81
2021/12/01 00:42:27;;;;;;;4.26;3.77;;;;;;;4.48;60.60;98835.91;464042;112;923239;-82
2021/12/01 00:43:31;;;;;;;3.67;3.37;;;;;;;4.46;60.62;98835.33;464411;111;930658;-81
2021/12/01 00:44:36;;;;;;;3.80;3.47;;;;;;;4.46;60.65;98841.55;458589;113;922551;-82
2021/12/01 00:45:46;;;;;;;3.82;3.52;;;;;;;4.45;60.71;98836.36;458331;114;922585;-81
2021/12/01 00:47:05;;;;;;;3.32;3.04;;;;;;;4.44;60.79;98832.00;458943;115;930537;-81
2021/12/01 00:48:02;;;;;;;3.52;3.23;;;;;;;4.45;60.74;98831.80;463951;111;922566;-80
2021/12/01 00:49:05;;;;;;;3.44;3.13;;;;;;;4.46;60.87;98840.72;466377;111;922679;-81
2021/12/01 00:50:12;;;;;;;3.65;3.35;;;;;;;4.48;60.92;98831.34;463015;114;930626;-81
2021/12/01 00:51:16;;;;;;;3.68;3.38;;;;;;;4.49;60.95;98845.67;467814;111;930639;-81
2021/12/01 00:52:19;;;;;;;3.37;3.08;;;;;;;4.50;60.90;98834.66;461924;112;922585;-82
2021/12/01 00:53:23;;;;;;;3.62;3.33;;;;;;;4.51;60.80;98833.63;460629;113;922616;-81
2021/12/01 00:54:26;;;;;;;3.22;2.93;;;;;;;4.51;60.75;98836.32;467027;111;923015;-81
2021/12/01 00:55:30;;;;;;;3.27;2.97;;;;;;;4.49;60.66;98841.10;464060;111;922840;-81
2021/12/01 00:56:34;;;;;;;3.14;2.89;;;;;;;4.48;60.65;98846.70;470133;111;930535;-81
2021/12/01 00:57:37;;;;;;;3.35;3.08;;;;;;;4.45;60.61;98844.45;468322;111;922726;-83
2021/12/01 00:58:41;;;;;;;2.74;2.54;;;;;;;4.43;60.60;98843.84;460898;112;930574;-82
2021/12/01 00:59:44;;;;;;;2.56;2.36;;;;;;;4.43;60.57;98838.44;461257;114;930907;-82
2021/12/01 01:00:49;;;;;;;3.10;2.90;;;;;;;4.42;60.66;98845.70;461662;112;922566;-80
2021/12/01 01:01:53;;;;;;;3.67;3.37;;;;;;;4.40;60.68;98850.51;468809;111;930627;-81
2021/12/01 01:02:57;;;;;;;3.13;2.92;;;;;;;4.40;60.64;98855.08;469310;110;923474;-82
2021/12/01 01:04:01;;;;;;;3.24;2.95;;;;;;;4.38;60.63;98847.19;464933;112;922541;-81
2021/12/01 01:05:05;;;;;;;3.11;2.86;;;;;;;4.38;60.64;98847.19;463786;112;930481;-82
2021/12/01 01:06:09;;;;;;;3.29;2.99;;;;;;;4.38;60.70;98852.59;463688;113;922712;-81
2021/12/01 01:07:13;;;;;;;2.68;2.48;;;;;;;4.38;60.62;98849.06;463586;113;922670;-82
2021/12/01 01:08:17;;;;;;;2.47;2.31;;;;;;;4.38;60.69;98851.76;474386;111;930273;-81
2021/12/01 01:09:22;;;;;;;2.70;2.41;;;;;;;4.36;60.73;98854.66;473702;109;930796;-82
2021/12/01 01:18:41;;;;;;;2.93;2.61;;;;;;;4.36;60.86;98864.63;471279;110;947398;-81
2021/12/01 01:19:44;;;;;;;2.97;2.75;;;;;;;4.25;60.86;98866.14;463377;112;922629;-81
2021/12/01 01:20:49;;;;;;;2.92;2.72;;;;;;;4.25;60.89;98866.14;463379;112;922505;-81
2021/12/01 01:21:55;;;;;;;3.11;2.86;;;;;;;4.24;60.88;98872.61;462574;112;922990;-81
2021/12/01 01:22:58;;;;;;;2.89;2.46;;;;;;;4.22;60.94;98874.69;462429;112;922621;-80
2021/12/01 01:24:02;;;;;;;2.84;2.64;;;;;;;4.22;61.08;98868.45;463492;112;922807;-82
2021/12/01 01:25:08;;;;;;;3.04;2.35;;;;;;;4.23;61.08;98865.55;463876;112;922582;-81
2021/12/01 01:26:16;;;;;;;2.76;2.56;;;;;;;4.23;61.06;98868.25;463585;112;922978;-82
2021/12/01 01:27:19;;;;;;;2.39;2.18;;;;;;;4.22;61.10;98871.98;463974;112;922719;-81
2021/12/01 01:28:23;;;;;;;3.14;2.85;;;;;;;4.23;61.09;98873.64;464142;112;922669;-82
2021/12/01 01:29:33;;;;;;;2.94;2.74;;;;;;;4.24;61.06;98872.61;463736;112;922535;-82
2021/12/01 01:30:34;;;;;;;3.12;2.92;;;;;;;4.23;60.94;98876.34;462638;112;930551;-81
2021/12/01 01:31:38;;;;;;;3.83;3.53;;;;;;;4.24;60.92;98879.87;463923;112;922700;-81
2021/12/01 01:32:41;;;;;;;3.38;3.16;;;;;;;4.21;60.92;98878.42;458132;114;922633;-81
2021/12/01 01:33:45;;;;;;;4.10;3.79;;;;;;;4.19;60.94;98878.63;459010;112;922707;-81
2021/12/01 01:34:49;;;;;;;3.43;3.14;;;;;;;4.18;60.96;98879.69;463255;112;930561;-82
2021/12/01 01:35:52;;;;;;;2.75;2.55;;;;;;;4.17;61.07;98883.42;464347;112;922579;-82
2021/12/01 01:36:56;;;;;;;2.88;2.68;;;;;;;4.17;60.99;98887.99;463954;112;922942;-80
2021/12/01 01:37:59;;;;;;;2.69;2.49;;;;;;;4.17;60.97;98877.20;463540;112;922830;-82
2021/12/01 01:39:04;;;;;;;3.09;2.81;;;;;;;4.17;60.88;98887.99;464190;112;923115;-82
2021/12/01 01:40:09;;;;;;;3.59;3.29;;;;;;;4.15;60.88;98890.89;463353;112;930940;-81
2021/12/01 01:41:13;;;;;;;2.92;2.71;;;;;;;4.14;60.82;98889.23;464124;112;922654;-81
2021/12/01 01:42:17;;;;;;;2.92;2.72;;;;;;;4.14;60.83;98883.01;464143;112;922889;-81
2021/12/01 01:43:22;;;;;;;3.20;2.99;;;;;;;4.15;60.91;98890.06;463727;112;923163;-82
2021/12/01 01:44:25;;;;;;;2.60;2.40;;;;;;;4.14;60.95;98888.41;463749;112;923015;-81
2021/12/01 01:45:28;;;;;;;3.02;2.76;;;;;;;4.15;60.87;98895.45;463689;112;930486;-82
2021/12/01 01:46:34;;;;;;;2.67;2.47;;;;;;;4.14;60.82;98889.23;464065;112;922536;-81
2021/12/01 01:47:52;;;;;;;2.63;2.43;;;;;;;4.13;60.78;98898.39;463766;112;930545;-81
2021/12/01 01:48:55;;;;;;;2.65;2.47;;;;;;;4.12;60.59;98895.91;462821;112;922996;-82
2021/12/01 01:50:12;;;;;;;3.13;2.71;;;;;;;4.10;60.62;98889.88;463891;112;922636;-81
2021/12/01 01:51:07;;;;;;;3.29;2.98;;;;;;;4.09;60.69;98896.31;463349;112;930332;-82
2021/12/01 01:52:10;;;;;;;3.05;2.56;;;;;;;4.07;60.73;98898.41;462816;112;922785;-81
2021/12/01 01:53:23;;;;;;;2.49;2.31;;;;;;;4.05;60.78;98903.19;463852;112;923300;-82
2021/12/01 01:54:26;;;;;;;2.54;2.34;;;;;;;4.05;60.75;98893.23;463716;112;930572;-82
2021/12/01 01:55:32;;;;;;;2.87;2.62;;;;;;;4.06;60.90;98897.58;464156;112;922925;-82
2021/12/01 01:56:35;;;;;;;3.44;2.46;;;;;;;4.09;60.93;98893.61;463632;112;922994;-82
2021/12/01 01:57:38;;;;;;;2.49;2.29;;;;;;;4.10;60.85;98887.19;463582;112;922673;-81
2021/12/01 01:58:42;;;;;;;2.91;2.52;;;;;;;4.10;60.76;98892.58;464571;112;930259;-81
2021/12/01 01:59:45;;;;;;;2.91;2.64;;;;;;;4.10;60.77;98898.80;463326;112;930439;-82
2021/12/01 02:00:52;;;;;;;2.58;2.39;;;;;;;4.11;60.73;98894.23;463627;112;922643;-80
2021/12/01 02:01:58;;;;;;;3.43;2.91;;;;;;;4.10;60.73;98897.97;463457;112;922683;-81
2021/12/01 02:03:01;;;;;;;2.64;2.44;;;;;;;4.10;60.66;98903.37;463759;112;922652;-80
2021/12/01 02:04:06;;;;;;;3.11;2.51;;;;;;;4.11;60.70;98902.33;464191;112;922923;-80
2021/12/01 02:05:09;;;;;;;3.32;3.03;;;;;;;4.11;60.67;98899.63;464181;112;923148;-82
2021/12/01 02:06:21;;;;;;;3.08;2.83;;;;;;;4.10;60.68;98904.20;463577;112;922538;-82
2021/12/01 02:07:19;;;;;;;2.96;2.65;;;;;;;4.09;60.63;98905.23;463348;112;930893;-80
2021/12/01 02:08:33;;;;;;;2.71;2.49;;;;;;;4.11;60.59;98903.16;464127;112;922736;-81
2021/12/01 02:09:28;;;;;;;2.94;2.67;;;;;;;4.12;60.66;98907.52;460947;111;922830;-79
2021/12/01 02:10:32;;;;;;;3.14;2.77;;;;;;;4.13;60.64;98908.35;454450;114;922481;-80
2021/12/01 02:11:36;;;;;;;2.71;2.35;;;;;;;4.12;60.56;98912.91;454677;115;922572;-81
2021/12/01 02:12:40;;;;;;;2.78;2.55;;;;;;;4.12;60.60;98909.39;457819;114;922278;-80
2021/12/01 02:13:44;;;;;;;2.59;2.35;;;;;;;4.11;60.55;98915.81;457917;114;924969;-80
2021/12/01 02:14:48;;;;;;;3.29;2.99;;;;;;;4.10;60.54;98922.25;463572;112;922682;-80
2021/12/01 02:15:53;;;;;;;2.57;2.37;;;;;;;4.07;60.53;98918.13;465179;112;923397;-80
2021/12/01 02:16:58;;;;;;;2.49;2.29;;;;;;;4.06;60.63;98924.55;463720;112;923031;-80
2021/12/01 02:18:02;;;;;;;3.29;2.86;;;;;;;4.06;60.73;98923.72;463971;112;923129;-80
2021/12/01 02:19:05;;;;;;;3.96;2.66;;;;;;;4.06;60.74;98926.42;464390;112;922591;-81
2021/12/01 02:20:20;;;;;;;2.67;2.45;;;;;;;4.06;60.77;98929.12;464342;112;922777;-82
2021/12/01 02:21:29;;;;;;;3.64;3.00;;;;;;;4.05;60.66;98928.28;463609;111;923041;-79
2021/12/01 02:22:34;;;;;;;3.08;2.73;;;;;;;4.03;60.72;98930.36;464065;112;922756;-81
2021/12/01 02:23:41;;;;;;;3.31;2.87;;;;;;;4.03;60.80;98933.05;463719;112;922650;-81
2021/12/01 02:24:47;;;;;;;3.31;2.94;;;;;;;4.03;60.78;98940.31;462417;112;922665;-80
2021/12/01 02:25:51;;;;;;;3.71;3.03;;;;;;;4.03;60.85;98937.62;463706;112;922918;-81
2021/12/01 02:26:54;;;;;;;3.29;2.66;;;;;;;4.02;60.95;98934.13;463786;112;922770;-81
2021/12/01 02:27:58;;;;;;;2.99;2.76;;;;;;;4.02;60.96;98938.68;463941;112;922608;-80
2021/12/01 02:29:04;;;;;;;2.99;2.76;;;;;;;4.05;60.94;98933.67;463659;112;930649;-79
2021/12/01 02:30:09;;;;;;;2.99;2.74;;;;;;;4.05;60.94;98933.67;462737;112;930610;-80
2021/12/01 02:31:14;;;;;;;3.08;2.76;;;;;;;4.04;60.94;98932.02;456748;112;922753;-81
2021/12/01 02:32:18;;;;;;;4.39;3.03;;;;;;;4.06;60.91;98937.20;453124;113;922761;-78
2021/12/01 02:33:21;;;;;;;3.18;2.88;;;;;;;4.06;60.89;98938.03;458800;112;922792;-80
2021/12/01 02:34:26;;;;;;;2.90;2.65;;;;;;;4.07;60.87;98941.56;463830;112;923069;-80
2021/12/01 02:35:29;;;;;;;2.98;2.75;;;;;;;4.08;60.81;98944.03;463182;112;930428;-81
2021/12/01 02:36:33;;;;;;;3.47;2.76;;;;;;;4.09;60.84;98944.86;463733;112;923656;-82
2021/12/01 02:37:37;;;;;;;3.12;2.91;;;;;;;4.09;60.78;98947.55;464955;112;930507;-81
2021/12/01 02:38:43;;;;;;;2.94;2.71;;;;;;;4.10;60.88;98949.22;463913;112;930613;-78
2021/12/01 02:39:50;;;;;;;2.78;2.56;;;;;;;4.11;60.89;98945.48;463477;112;922800;-82
2021/12/01 02:40:53;;;;;;;4.56;3.26;;;;;;;4.10;60.90;98947.34;463247;112;922621;-82
2021/12/01 02:41:59;;;;;;;3.21;2.91;;;;;;;4.11;60.88;98949.02;463589;112;922587;-79
2021/12/01 02:43:03;;;;;;;3.33;3.03;;;;;;;4.12;60.91;98952.54;463465;112;931057;-80
2021/12/01 02:44:08;;;;;;;2.81;2.61;;;;;;;4.13;60.91;98954.20;463119;112;922509;-80
2021/12/01 02:45:11;;;;;;;3.56;3.24;;;;;;;4.14;60.82;98953.97;463098;112;930391;-80
2021/12/01 02:46:15;;;;;;;2.94;2.74;;;;;;;4.16;60.77;98962.69;463867;112;922544;-82
2021/12/01 02:47:18;;;;;;;2.51;2.29;;;;;;;4.15;60.68;98965.59;462997;112;922598;-80
2021/12/01 02:48:23;;;;;;;2.72;2.52;;;;;;;4.13;60.70;98970.38;463415;111;930418;-77
2021/12/01 02:49:28;;;;;;;2.63;2.43;;;;;;;4.10;60.67;98968.92;463517;112;930607;-81
2021/12/01 02:50:32;;;;;;;3.08;2.87;;;;;;;4.06;60.63;98977.66;463063;112;930505;-81
2021/12/01 02:51:37;;;;;;;2.95;2.65;;;;;;;4.03;60.75;98972.67;463255;112;923061;-82
2021/12/01 02:52:40;;;;;;;2.91;2.65;;;;;;;4.02;60.81;98971.87;463629;112;930439;-80
2021/12/01 02:53:44;;;;;;;2.81;2.36;;;;;;;4.00;61.01;98979.34;462821;112;922721;-81
2021/12/01 02:54:48;;;;;;;3.11;2.87;;;;;;;3.99;61.05;98982.23;463773;112;922677;-79
2021/12/01 02:55:56;;;;;;;3.05;2.85;;;;;;;3.97;61.27;98981.64;463698;112;930427;-83
2021/12/01 02:57:00;;;;;;;2.86;2.66;;;;;;;3.96;61.29;98977.28;462731;112;922841;-81
2021/12/01 02:58:04;;;;;;;3.68;2.94;;;;;;;3.96;61.30;98978.11;464849;112;923271;-78
2021/12/01 02:59:08;;;;;;;3.03;2.78;;;;;;;3.96;61.36;98980.80;462729;112;930571;-81
2021/12/01 03:00:14;;;;;;;3.48;3.21;;;;;;;3.97;61.43;98979.73;458717;113;922652;-79
2021/12/01 03:01:21;;;;;;;3.24;2.95;;;;;;;3.98;61.44;98976.01;458598;112;922627;-81
2021/12/01 03:02:25;;;;;;;3.39;3.10;;;;;;;3.99;61.56;98980.37;463233;112;922646;-80
2021/12/01 03:03:29;;;;;;;2.98;2.69;;;;;;;4.01;61.54;98977.47;464478;112;922582;-80
2021/12/01 03:04:33;;;;;;;2.80;2.59;;;;;;;4.01;61.48;98982.86;463598;112;922764;-81
2021/12/01 03:05:38;;;;;;;2.79;2.59;;;;;;;4.02;61.51;98984.52;465014;112;930341;-82
2021/12/01 03:06:43;;;;;;;2.61;2.41;;;;;;;4.02;61.52;98988.05;463733;112;930365;-80
2021/12/01 03:07:48;;;;;;;3.26;2.96;;;;;;;4.03;61.52;98997.77;463746;112;923053;-81
2021/12/01 03:08:52;;;;;;;2.61;2.41;;;;;;;4.02;61.29;98989.92;463549;112;923126;-80
2021/12/01 03:09:55;;;;;;;3.03;2.74;;;;;;;4.01;61.15;98985.56;463314;112;930502;-82
2021/12/01 03:10:59;;;;;;;2.47;2.27;;;;;;;4.00;61.26;99000.91;464419;112;922468;-80
2021/12/01 03:12:02;;;;;;;3.26;2.76;;;;;;;4.00;61.28;99000.08;464211;112;922614;-79
2021/12/01 03:13:06;;;;;;;2.58;2.29;;;;;;;3.99;61.20;99004.64;463182;112;922720;-81
2021/12/01 03:14:12;;;;;;;2.87;2.66;;;;;;;3.98;61.15;99000.28;464423;112;923084;-80
2021/12/01 03:15:19;;;;;;;2.66;2.36;;;;;;;3.97;61.15;99000.52;463178;112;922936;-81
2021/12/01 03:16:24;;;;;;;2.67;2.48;;;;;;;3.95;61.10;99003.41;465720;112;922470;-81
2021/12/01 03:17:29;;;;;;;2.78;2.58;;;;;;;3.95;61.10;99008.80;464201;112;922765;-80
2021/12/01 03:18:33;;;;;;;2.58;2.38;;;;;;;3.95;61.17;99013.37;464399;112;930388;-81
2021/12/01 03:19:36;;;;;;;3.04;2.74;;;;;;;3.93;61.11;99016.27;464150;112;923051;-80
2021/12/01 03:20:42;;;;;;;2.69;2.49;;;;;;;3.94;61.16;99015.23;464507;112;924950;-81
2021/12/01 03:21:46;;;;;;;3.34;3.04;;;;;;;3.94;61.19;99023.32;463133;111;922929;-81
2021/12/01 03:22:49;;;;;;;2.91;2.62;;;;;;;3.94;61.26;99027.88;462953;112;923211;-81
2021/12/01 03:23:52;;;;;;;4.50;2.85;;;;;;;3.94;61.40;99033.27;464560;112;923474;-79
2021/12/01 03:24:56;;;;;;;3.10;2.79;;;;;;;3.93;61.45;99031.61;464022;112;922793;-79
2021/12/01 03:25:59;;;;;;;3.26;2.66;;;;;;;3.91;61.59;99034.54;463379;112;922534;-81
2021/12/01 03:27:03;;;;;;;3.27;2.84;;;;;;;3.90;61.63;99034.74;464100;111;922688;-81
2021/12/01 03:28:08;;;;;;;3.04;2.80;;;;;;;3.88;61.69;99044.89;464176;112;922374;-82
2021/12/01 03:29:14;;;;;;;2.48;2.29;;;;;;;3.86;61.76;99039.70;463645;112;922563;-81
2021/12/01 03:30:17;;;;;;;3.75;3.12;;;;;;;3.85;61.89;99042.63;464069;112;930254;-79
2021/12/01 03:31:20;;;;;;;3.22;3.02;;;;;;;3.85;61.96;99045.33;464087;112;923142;-80
2021/12/01 03:32:25;;;;;;;2.52;2.32;;;;;;;3.84;62.06;99044.49;464093;112;922514;-81
2021/12/01 03:33:28;;;;;;;2.53;2.33;;;;;;;3.85;62.10;99045.33;464145;112;930330;-81
2021/12/01 03:34:32;;;;;;;3.89;2.59;;;;;;;3.85;62.06;99045.33;463466;112;922534;-81
2021/12/01 03:35:37;;;;;;;3.11;2.71;;;;;;;3.83;62.17;99042.83;463971;112;922502;-80
2021/12/01 03:36:41;;;;;;;2.89;2.56;;;;;;;3.82;62.21;99048.42;465747;112;922937;-81
2021/12/01 03:37:46;;;;;;;2.79;2.59;;;;;;;3.82;62.17;99049.25;464263;112;922685;-81
2021/12/01 03:38:50;;;;;;;3.01;2.77;;;;;;;3.83;62.15;99048.22;464256;112;922595;-80
2021/12/01 03:39:54;;;;;;;2.57;2.37;;;;;;;3.84;62.20;99051.75;463051;112;922600;-81
2021/12/01 03:40:58;;;;;;;3.02;2.32;;;;;;;3.85;62.17;99058.80;463070;112;922470;-80
2021/12/01 03:42:02;;;;;;;3.01;2.69;;;;;;;3.86;62.22;99060.47;463047;112;923079;-81
2021/12/01 03:43:06;;;;;;;2.83;2.62;;;;;;;3.86;62.10;99060.47;464018;112;922467;-81
2021/12/01 03:44:09;;;;;;;3.11;2.46;;;;;;;3.84;62.05;99059.84;465117;112;922593;-80
2021/12/01 03:45:14;;;;;;;2.81;2.54;;;;;;;3.83;62.07;99067.09;466341;112;930258;-82
2021/12/01 03:46:19;;;;;;;3.42;2.71;;;;;;;3.77;61.71;99068.75;462837;112;922651;-80
2021/12/01 03:47:24;;;;;;;2.59;2.36;;;;;;;3.77;61.71;99068.75;463639;112;922732;-82
2021/12/01 03:48:28;;;;;;;2.87;2.33;;;;;;;3.75;61.80;99069.98;455405;115;930401;-81
2021/12/01 03:49:31;;;;;;;2.48;2.14;;;;;;;3.73;61.80;99072.08;464001;112;922897;-81
2021/12/01 03:50:36;;;;;;;2.53;2.33;;;;;;;3.70;61.71;99070.61;464587;112;930430;-80
2021/12/01 03:51:41;;;;;;;2.74;2.54;;;;;;;3.68;61.67;99077.27;464625;112;923857;-81
2021/12/01 03:52:44;;;;;;;2.53;2.33;;;;;;;3.65;61.66;99073.11;464008;112;930209;-80
2021/12/01 03:53:48;;;;;;;2.91;2.71;;;;;;;3.62;61.67;99084.31;463246;112;922820;-82
2021/12/01 03:54:54;;;;;;;2.47;2.28;;;;;;;3.59;61.69;99087.41;463667;112;922646;-81
2021/12/01 03:55:59;;;;;;;2.81;2.61;;;;;;;3.55;61.67;99088.03;463618;112;922483;-79
2021/12/01 03:57:02;;;;;;;2.71;2.28;;;;;;;3.49;61.83;99092.38;463158;112;923769;-82
2021/12/01 03:58:05;;;;;;;2.64;2.44;;;;;;;3.46;61.83;99079.33;464689;112;930053;-79
2021/12/01 03:59:09;;;;;;;3.11;2.45;;;;;;;3.44;61.90;99091.33;464857;112;930435;-79
2021/12/01 04:00:16;;;;;;;2.29;2.09;;;;;;;3.40;61.90;99088.23;463498;112;922683;-82
2021/12/01 04:01:21;;;;;;;3.28;2.46;;;;;;;3.36;61.89;99092.38;464001;112;930395;-82
2021/12/01 04:02:25;;;;;;;2.64;2.44;;;;;;;3.33;61.88;99084.69;464048;112;922506;-78
2021/12/01 04:03:28;;;;;;;2.44;2.16;;;;;;;3.29;61.94;99097.75;464403;112;922566;-81
2021/12/01 04:04:32;;;;;;;2.21;2.02;;;;;;;3.26;61.85;99102.69;464061;112;922621;-81
2021/12/01 04:05:35;;;;;;;2.34;2.14;;;;;;;3.22;61.93;99104.14;463612;112;923325;-80
2021/12/01 04:06:39;;;;;;;2.31;1.92;;;;;;;3.19;61.84;99105.39;464328;112;922486;-82
2021/12/01 04:07:43;;;;;;;2.52;2.29;;;;;;;3.16;61.85;99107.64;464861;112;930686;-81
2021/12/01 04:08:46;;;;;;;2.04;1.94;;;;;;;3.13;61.87;99102.67;464916;112;930283;-81
2021/12/01 04:09:51;;;;;;;1.96;1.84;;;;;;;3.11;61.85;99110.12;463589;112;923067;-81
2021/12/01 04:10:54;;;;;;;2.18;1.98;;;;;;;3.08;61.79;99113.23;464332;112;922709;-81
2021/12/01 04:11:57;;;;;;;3.06;2.02;;;;;;;3.06;61.66;99116.11;464353;112;922949;-81
2021/12/01 04:13:01;;;;;;;2.22;2.01;;;;;;;3.04;61.58;99110.09;464001;112;923021;-84
2021/12/01 04:14:04;;;;;;;2.81;2.49;;;;;;;3.03;61.50;99115.70;463929;112;922466;-81
2021/12/01 04:15:09;;;;;;;3.29;2.29;;;;;;;3.02;61.43;99114.03;463394;112;922812;-81
2021/12/01 04:16:14;;;;;;;2.54;1.98;;;;;;;2.99;61.23;99112.56;463211;112;930755;-81
2021/12/01 04:17:17;;;;;;;1.97;1.62;;;;;;;2.98;60.99;99118.17;463852;112;922477;-82
2021/12/01 04:18:21;;;;;;;1.87;1.77;;;;;;;2.98;60.85;99120.86;463857;112;930836;-81
2021/12/01 04:19:24;;;;;;;1.65;1.55;;;;;;;2.97;60.84;99116.50;464385;112;923153;-81
2021/12/01 04:20:27;;;;;;;2.41;1.20;;;;;;;2.96;60.74;99129.13;464700;112;922914;-81
2021/12/01 04:21:31;;;;;;;2.41;1.37;;;;;;;2.94;60.64;99133.88;464001;112;929963;-80
2021/12/01 04:22:35;;;;;;;2.45;1.32;;;;;;;2.92;60.58;99127.88;463867;112;922373;-80
2021/12/01 04:23:38;;;;;;;1.69;1.51;;;;;;;2.92;60.58;99141.34;464709;112;930085;-81
2021/12/01 04:24:42;;;;;;;1.46;1.21;;;;;;;2.92;60.58;99136.77;463706;112;922492;-81
2021/12/01 04:25:46;;;;;;;3.04;2.58;;;;;;;2.92;60.39;99136.77;465275;112;922919;-80
2021/12/01 04:26:49;;;;;;;2.58;2.32;;;;;;;2.93;60.00;99148.36;459306;114;922926;-81
2021/12/01 04:27:53;;;;;;;2.59;2.27;;;;;;;2.91;59.79;99145.89;461959;113;922635;-82
2021/12/01 04:28:57;;;;;;;2.83;2.55;;;;;;;2.90;59.66;99154.16;466044;112;930149;-82
2021/12/01 04:30:00;;;;;;;2.29;2.09;;;;;;;2.89;59.62;99155.19;463685;112;922403;-82
2021/12/01 04:31:03;;;;;;;5.14;3.21;;;;;;;2.86;59.59;99155.61;464730;112;922176;-81
2021/12/01 04:32:08;;;;;;;3.16;2.84;;;;;;;2.83;59.50;99159.52;465999;112;922284;-80
2021/12/01 04:33:11;;;;;;;2.48;2.28;;;;;;;2.84;59.44;99163.87;464927;112;930132;-82
2021/12/01 04:34:16;;;;;;;4.48;3.16;;;;;;;2.83;59.41;99155.98;464852;112;930170;-82
2021/12/01 04:35:23;;;;;;;4.48;4.18;;;;;;;2.81;59.34;99161.56;458528;114;922290;-81
2021/12/01 04:36:33;;;;;;;3.70;3.41;;;;;;;2.76;58.97;99164.02;460706;112;922460;-80
2021/12/01 04:37:34;;;;;;;4.13;3.83;;;;;;;2.76;58.97;99164.02;464333;112;922214;-80
2021/12/01 04:38:38;;;;;;;4.37;4.00;;;;;;;2.78;59.06;99164.66;465494;112;922382;-81
2021/12/01 04:39:42;;;;;;;3.30;2.82;;;;;;;2.77;59.10;99168.38;465931;112;922425;-80
2021/12/01 04:40:45;;;;;;;2.24;1.98;;;;;;;2.76;59.06;99169.41;465316;112;922587;-81
2021/12/01 04:41:55;;;;;;;2.64;1.89;;;;;;;2.76;58.96;99166.71;464933;112;922121;-83
2021/12/01 04:42:57;;;;;;;2.54;1.64;;;;;;;2.77;58.69;99168.38;458536;114;924860;-82
2021/12/01 04:44:02;;;;;;;1.58;1.32;;;;;;;2.76;58.78;99169.41;457781;112;922626;-80
2021/12/01 04:45:14;;;;;;;1.61;1.38;;;;;;;2.76;58.63;99169.41;466023;112;922776;-82
2021/12/01 04:46:19;;;;;;;2.90;1.61;;;;;;;2.77;58.62;99173.77;464366;112;922370;-81
2021/12/01 04:47:28;;;;;;;1.46;1.36;;;;;;;2.77;58.47;99171.07;465117;112;922129;-81
2021/12/01 04:48:27;;;;;;;1.59;1.41;;;;;;;2.79;58.38;99178.95;464935;112;922170;-79
2021/12/01 04:49:32;;;;;;;3.39;1.40;;;;;;;2.79;58.19;99179.79;465395;112;922424;-81
2021/12/01 04:50:35;;;;;;;3.43;1.75;;;;;;;2.78;58.12;99188.89;464596;112;924549;-80
2021/12/01 04:51:41;;;;;;;2.02;1.80;;;;;;;2.75;58.02;99186.61;465649;112;922564;-80
2021/12/01 04:52:46;;;;;;;2.44;2.01;;;;;;;2.73;57.77;99188.66;465468;112;922323;-81
2021/12/01 04:53:49;;;;;;;3.12;2.52;;;;;;;2.73;57.77;99188.66;463929;112;922208;-81
2021/12/01 04:54:53;;;;;;;4.57;2.20;;;;;;;2.73;57.87;99193.20;465637;112;922239;-79
2021/12/01 04:55:56;;;;;;;2.51;2.31;;;;;;;2.72;57.75;99197.75;464745;112;930277;-80
2021/12/01 04:57:02;;;;;;;2.54;2.15;;;;;;;2.71;57.66;99195.25;465836;112;922134;-82
2021/12/01 04:58:05;;;;;;;3.91;2.49;;;;;;;2.70;57.68;99201.69;464731;112;930032;-81
2021/12/01 04:59:10;;;;;;;2.50;2.30;;;;;;;2.68;57.63;99201.88;464657;112;922255;-81
2021/12/01 05:00:20;;;;;;;2.62;2.37;;;;;;;2.67;57.63;99204.76;465838;112;929848;-82
2021/12/01 05:01:23;;;;;;;6.20;2.67;;;;;;;2.68;57.64;99203.73;463970;112;922267;-82
2021/12/01 05:02:28;;;;;;;3.93;2.22;;;;;;;2.67;57.65;99202.90;465027;112;922275;-80
2021/12/01 05:03:32;;;;;;;3.24;1.86;;;;;;;2.67;57.67;99216.36;465252;112;922414;-80
2021/12/01 05:04:37;;;;;;;5.41;1.73;;;;;;;2.67;57.67;99213.66;464213;112;922408;-82
2021/12/01 05:05:40;;;;;;;2.29;1.84;;;;;;;2.67;57.91;99215.52;464714;112;922076;-79
2021/12/01 05:06:44;;;;;;;3.31;2.17;;;;;;;2.69;57.97;99213.47;465316;112;922390;-79
2021/12/01 05:07:47;;;;;;;4.96;2.49;;;;;;;2.70;57.93;99215.95;464390;112;922189;-82
2021/12/01 05:08:51;;;;;;;3.82;2.11;;;;;;;2.69;57.78;99225.07;464796;112;930264;-83
2021/12/01 05:09:56;;;;;;;5.14;2.47;;;;;;;2.69;57.83;99224.23;464364;112;922741;-82
2021/12/01 05:11:00;;;;;;;3.85;1.99;;;;;;;2.67;57.82;99229.81;465815;112;922246;-81
2021/12/01 05:12:06;;;;;;;2.41;1.66;;;;;;;2.65;57.81;99228.33;465285;112;922666;-82